Time;durP1;ratioP1;P1;durP2;ratioP2;P2;SDS_P1;SDS_P2;PMS_P1;PMS_P2;Temp;Humidity;BMP_temperature;BMP_pressure;BME280_temperature;BME280_humidity;BME280_pressure;Samples;Min_cycle;Max_cycle;Signal;HPM_P1;HPM_P2
2023/09/27 00:00:20;;;;;;;0.77;0.35;;;12.70;99.90;;;;;;5063545;28;20113;-73
2023/09/27 00:02:46;;;;;;;0.50;0.50;;;12.70;99.90;;;;;;5062166;28;20044;-73
2023/09/27 00:05:13;;;;;;;0.47;0.47;;;12.70;99.90;;;;;;5073250;28;20036;-73
2023/09/27 00:07:40;;;;;;;1.08;0.68;;;12.60;99.90;;;;;;5050752;28;20037;-73
2023/09/27 00:10:09;;;;;;;0.60;0.60;;;12.60;99.90;;;;;;5058208;28;20036;-73
2023/09/27 00:12:36;;;;;;;0.50;0.50;;;12.60;99.90;;;;;;5061140;28;20036;-73
2023/09/27 00:15:02;;;;;;;0.32;0.32;;;12.60;99.90;;;;;;5050358;28;20035;-73
2023/09/27 00:17:31;;;;;;;0.40;0.40;;;12.50;99.90;;;;;;5068573;28;20443;-73
2023/09/27 00:19:57;;;;;;;0.43;0.43;;;12.40;99.90;;;;;;5066747;28;20048;-73
2023/09/27 00:22:24;;;;;;;0.40;0.40;;;12.40;99.90;;;;;;5064564;28;20170;-73
2023/09/27 00:24:50;;;;;;;0.30;0.30;;;12.40;99.90;;;;;;5061869;28;20125;-73
2023/09/27 00:27:16;;;;;;;0.60;0.60;;;12.40;99.90;;;;;;5070790;28;20036;-73
2023/09/27 00:29:42;;;;;;;0.52;0.52;;;12.40;99.90;;;;;;5060164;28;20169;-73
2023/09/27 00:32:08;;;;;;;0.40;0.40;;;12.40;99.90;;;;;;5061813;28;20068;-73
2023/09/27 00:34:37;;;;;;;0.70;0.70;;;12.40;99.90;;;;;;5063578;28;20141;-73
2023/09/27 00:37:02;;;;;;;0.70;0.70;;;12.40;99.90;;;;;;5059886;28;20113;-73
2023/09/27 00:39:28;;;;;;;0.50;0.50;;;12.40;99.90;;;;;;5057650;28;20044;-73
2023/09/27 00:41:54;;;;;;;0.32;0.32;;;12.30;99.90;;;;;;5069391;28;20040;-73
2023/09/27 00:44:20;;;;;;;0.40;0.40;;;12.30;99.90;;;;;;5071107;28;20043;-73
2023/09/27 00:46:46;;;;;;;1.05;1.05;;;12.30;99.90;;;;;;5048806;28;20037;-73
2023/09/27 00:49:14;;;;;;;0.50;0.50;;;12.30;99.90;;;;;;5057202;28;20047;-73
2023/09/27 00:51:40;;;;;;;0.30;0.30;;;12.30;99.90;;;;;;5061794;28;20040;-73
2023/09/27 00:54:07;;;;;;;0.52;0.52;;;12.30;99.90;;;;;;5066087;28;20048;-73
2023/09/27 00:56:34;;;;;;;0.50;0.50;;;12.30;99.90;;;;;;5056584;28;20106;-73
2023/09/27 00:59:00;;;;;;;0.40;0.40;;;12.30;99.90;;;;;;5039081;28;20398;-73
2023/09/27 01:01:27;;;;;;;0.85;0.85;;;12.30;99.90;;;;;;5062640;28;20149;-73
2023/09/27 01:03:53;;;;;;;0.40;0.40;;;12.30;99.90;;;;;;5050988;28;20045;-73
2023/09/27 01:06:20;;;;;;;1.90;0.50;;;12.30;99.90;;;;;;5053786;28;20494;-73
2023/09/27 01:08:46;;;;;;;0.50;0.50;;;12.30;99.90;;;;;;5040291;28;20041;-73
2023/09/27 01:11:12;;;;;;;0.30;0.30;;;12.30;99.90;;;;;;5064243;28;20102;-73
2023/09/27 01:13:38;;;;;;;0.47;0.47;;;12.30;99.90;;;;;;5058991;28;20040;-73
2023/09/27 01:16:04;;;;;;;0.55;0.55;;;12.20;99.90;;;;;;5056233;28;20040;-73
2023/09/27 01:18:30;;;;;;;0.35;0.35;;;12.20;99.90;;;;;;5059787;28;20522;-73
2023/09/27 01:20:56;;;;;;;1.55;1.45;;;12.10;99.90;;;;;;5058293;28;20067;-73
2023/09/27 01:23:21;;;;;;;0.50;0.50;;;12.10;99.90;;;;;;5054677;28;20049;-73
2023/09/27 01:25:50;;;;;;;0.45;0.45;;;12.10;99.90;;;;;;5054062;28;20044;-73
2023/09/27 01:28:20;;;;;;;0.40;0.40;;;12.10;99.90;;;;;;5064211;28;20037;-73
2023/09/27 01:30:47;;;;;;;0.52;0.52;;;12.10;99.90;;;;;;5068917;28;20051;-73
2023/09/27 01:33:13;;;;;;;0.63;0.63;;;12.10;99.90;;;;;;5060904;28;20123;-73
2023/09/27 01:35:43;;;;;;;0.45;0.45;;;12.10;99.90;;;;;;5064007;28;20593;-73
2023/09/27 01:38:10;;;;;;;0.82;0.82;;;12.10;99.90;;;;;;5057649;28;20507;-73
2023/09/27 01:40:44;;;;;;;0.80;0.80;;;12.10;99.90;;;;;;5062231;28;20576;-73
2023/09/27 01:43:11;;;;;;;0.30;0.30;;;12.10;99.90;;;;;;5056159;28;20068;-73
2023/09/27 01:45:37;;;;;;;0.60;0.60;;;12.10;99.90;;;;;;5048516;28;20036;-73
2023/09/27 01:48:04;;;;;;;0.40;0.40;;;12.10;99.90;;;;;;5067327;28;20522;-73
2023/09/27 01:50:33;;;;;;;0.60;0.60;;;12.10;99.90;;;;;;5034343;28;20044;-73
2023/09/27 01:52:59;;;;;;;0.70;0.70;;;12.10;99.90;;;;;;5059617;28;20136;-73
2023/09/27 01:55:25;;;;;;;0.65;0.65;;;12.10;99.90;;;;;;5058194;28;20127;-73
2023/09/27 01:57:51;;;;;;;0.50;0.50;;;12.10;99.90;;;;;;5053170;28;20633;-73
2023/09/27 02:00:19;;;;;;;1.13;1.02;;;12.00;99.90;;;;;;5059033;28;20528;-73
2023/09/27 02:02:49;;;;;;;0.45;0.45;;;12.10;99.90;;;;;;5055736;28;20048;-73
2023/09/27 02:05:15;;;;;;;0.40;0.40;;;12.00;99.90;;;;;;5063310;28;20040;-73
2023/09/27 02:07:41;;;;;;;0.30;0.30;;;12.00;99.90;;;;;;5054444;28;20064;-73
2023/09/27 02:10:08;;;;;;;0.63;0.63;;;12.00;99.90;;;;;;5068492;28;20075;-73
2023/09/27 02:12:34;;;;;;;0.70;0.70;;;12.00;99.90;;;;;;5062270;28;20036;-73
2023/09/27 02:15:00;;;;;;;0.60;0.60;;;11.90;99.90;;;;;;5064701;28;20473;-73
2023/09/27 02:17:26;;;;;;;1.30;0.68;;;12.00;99.90;;;;;;5061933;28;20454;-73
2023/09/27 02:19:52;;;;;;;0.30;0.30;;;11.90;99.90;;;;;;5056144;28;20347;-73
2023/09/27 02:22:18;;;;;;;0.40;0.40;;;11.90;99.90;;;;;;5055390;28;20057;-73
2023/09/27 02:24:44;;;;;;;1.00;1.00;;;11.90;99.90;;;;;;5066272;28;20040;-71
2023/09/27 02:27:10;;;;;;;0.40;0.40;;;11.90;99.90;;;;;;5084140;28;20040;-71
2023/09/27 02:29:42;;;;;;;0.68;0.63;;;11.90;99.90;;;;;;5062325;28;20064;-71
2023/09/27 02:32:09;;;;;;;0.63;0.63;;;11.90;99.90;;;;;;5060876;28;20040;-71
2023/09/27 02:34:35;;;;;;;0.47;0.47;;;11.90;99.90;;;;;;5045331;28;20040;-72
2023/09/27 02:37:01;;;;;;;0.40;0.40;;;11.80;99.90;;;;;;5061255;28;20039;-71
2023/09/27 02:39:28;;;;;;;0.75;0.75;;;11.80;99.90;;;;;;5054070;28;20124;-73
2023/09/27 02:41:56;;;;;;;0.60;0.60;;;11.70;99.90;;;;;;5044201;28;20039;-73
2023/09/27 02:44:23;;;;;;;0.93;0.60;;;11.80;99.90;;;;;;5046015;28;20028;-74
2023/09/27 02:46:50;;;;;;;0.55;0.55;;;11.70;99.90;;;;;;5060420;28;20098;-73
2023/09/27 02:49:16;;;;;;;0.82;0.63;;;11.70;99.90;;;;;;5062646;28;20507;-73
2023/09/27 02:51:42;;;;;;;0.50;0.50;;;11.60;99.90;;;;;;5065091;28;20032;-73
2023/09/27 02:54:07;;;;;;;0.95;0.88;;;11.60;99.90;;;;;;5073047;28;20089;-73
2023/09/27 02:56:33;;;;;;;0.47;0.47;;;11.60;99.90;;;;;;5066548;28;20558;-73
2023/09/27 02:58:58;;;;;;;0.65;0.65;;;11.60;99.90;;;;;;5069490;28;20456;-73
2023/09/27 03:01:24;;;;;;;0.40;0.40;;;11.60;99.90;;;;;;5060464;28;20047;-73
2023/09/27 03:03:51;;;;;;;0.40;0.40;;;11.60;99.90;;;;;;5043936;28;20673;-73
2023/09/27 03:06:17;;;;;;;0.40;0.40;;;11.60;99.90;;;;;;5062147;28;20052;-72
2023/09/27 03:08:43;;;;;;;1.23;0.57;;;11.60;99.90;;;;;;5058295;28;20036;-73
2023/09/27 03:11:10;;;;;;;0.55;0.55;;;11.60;99.90;;;;;;5059106;28;20041;-73
2023/09/27 03:13:38;;;;;;;0.30;0.30;;;11.60;99.90;;;;;;5060716;28;20044;-72
2023/09/27 03:16:04;;;;;;;0.57;0.57;;;11.60;99.90;;;;;;5065295;28;20044;-72
2023/09/27 03:18:32;;;;;;;0.63;0.63;;;11.60;99.90;;;;;;5069110;28;20514;-73
2023/09/27 03:20:59;;;;;;;0.57;0.57;;;11.60;99.90;;;;;;5069016;28;20056;-73
2023/09/27 03:23:27;;;;;;;0.52;0.52;;;11.60;99.90;;;;;;5070930;28;20151;-74
2023/09/27 03:25:56;;;;;;;0.60;0.60;;;11.60;99.90;;;;;;5069198;28;20032;-73
2023/09/27 03:28:22;;;;;;;0.60;0.60;;;11.50;99.90;;;;;;5059665;28;20067;-73
2023/09/27 03:30:48;;;;;;;0.85;0.85;;;11.60;99.90;;;;;;5050125;28;20036;-73
2023/09/27 03:33:14;;;;;;;0.95;0.57;;;11.60;99.90;;;;;;5061375;28;20223;-73
2023/09/27 03:35:40;;;;;;;0.30;0.30;;;11.60;99.90;;;;;;5059953;28;20036;-73
2023/09/27 03:38:05;;;;;;;0.30;0.30;;;11.50;99.90;;;;;;5063552;28;20036;-73
2023/09/27 03:40:32;;;;;;;0.93;0.93;;;11.50;99.90;;;;;;5046649;28;20298;-73
2023/09/27 03:42:57;;;;;;;0.30;0.30;;;11.50;99.90;;;;;;5053949;28;20478;-73
2023/09/27 03:45:23;;;;;;;0.60;0.60;;;11.50;99.90;;;;;;5057970;28;20134;-73
2023/09/27 03:47:49;;;;;;;0.55;0.55;;;11.50;99.90;;;;;;5060526;28;20041;-73
2023/09/27 03:50:15;;;;;;;0.55;0.55;;;11.50;99.90;;;;;;5063348;28;20123;-73
2023/09/27 03:52:42;;;;;;;0.50;0.50;;;11.50;99.90;;;;;;5051453;28;20147;-73
2023/09/27 03:55:09;;;;;;;0.93;0.93;;;11.50;99.90;;;;;;5041942;28;20048;-73
2023/09/27 03:57:35;;;;;;;0.70;0.52;;;11.40;99.90;;;;;;5048227;28;20040;-73
2023/09/27 04:00:00;;;;;;;0.40;0.40;;;11.40;99.90;;;;;;5057835;28;20575;-73
2023/09/27 04:02:29;;;;;;;0.50;0.50;;;11.40;99.90;;;;;;5061511;28;20048;-73
2023/09/27 04:04:54;;;;;;;0.43;0.43;;;11.40;99.90;;;;;;5062215;28;20040;-73
2023/09/27 04:07:20;;;;;;;1.20;1.10;;;11.40;99.90;;;;;;5064902;28;20048;-73
2023/09/27 04:09:46;;;;;;;0.88;0.88;;;11.40;99.90;;;;;;5061009;28;20119;-73
2023/09/27 04:12:12;;;;;;;0.65;0.60;;;11.40;99.90;;;;;;5062626;28;20123;-73
2023/09/27 04:14:38;;;;;;;0.60;0.60;;;11.40;99.90;;;;;;5068740;28;20115;-73
2023/09/27 04:17:04;;;;;;;0.52;0.52;;;11.40;99.90;;;;;;5057209;28;20045;-73
2023/09/27 04:19:31;;;;;;;0.50;0.50;;;11.40;99.90;;;;;;5061710;28;20051;-73
2023/09/27 04:21:57;;;;;;;1.10;1.02;;;11.40;99.90;;;;;;5037341;28;20097;-73
2023/09/27 04:24:23;;;;;;;0.93;0.93;;;11.30;99.90;;;;;;5061443;28;20045;-73
2023/09/27 04:26:49;;;;;;;0.60;0.60;;;11.30;99.90;;;;;;5062926;28;20032;-73
2023/09/27 04:29:15;;;;;;;0.47;0.47;;;11.30;99.90;;;;;;5051152;28;20032;-73
2023/09/27 04:31:40;;;;;;;1.65;0.82;;;11.30;99.90;;;;;;5054264;28;20103;-71
2023/09/27 04:34:06;;;;;;;0.75;0.75;;;11.30;99.90;;;;;;5058723;28;20174;-72
2023/09/27 04:36:32;;;;;;;0.57;0.57;;;11.30;99.90;;;;;;5067132;28;20512;-72
2023/09/27 04:38:58;;;;;;;0.40;0.40;;;11.30;99.90;;;;;;5061400;28;20409;-72
2023/09/27 04:41:24;;;;;;;0.95;0.68;;;11.20;99.90;;;;;;5054335;28;20047;-73
2023/09/27 04:43:49;;;;;;;0.70;0.70;;;11.20;99.90;;;;;;5064487;28;20048;-73
2023/09/27 04:46:16;;;;;;;0.73;0.70;;;11.20;99.90;;;;;;5037089;28;20375;-73
2023/09/27 04:48:42;;;;;;;0.85;0.85;;;11.20;99.90;;;;;;5049286;28;20037;-73
2023/09/27 04:51:09;;;;;;;2.00;0.82;;;11.20;99.90;;;;;;5059977;28;20043;-72
2023/09/27 04:53:37;;;;;;;0.70;0.70;;;11.20;99.90;;;;;;5063789;28;20040;-73
2023/09/27 04:56:06;;;;;;;0.52;0.52;;;11.10;99.90;;;;;;5067837;28;20032;-73
2023/09/27 04:58:32;;;;;;;0.22;0.22;;;11.20;99.90;;;;;;5058027;28;20493;-72
2023/09/27 05:00:58;;;;;;;0.95;0.95;;;11.10;99.90;;;;;;5063999;28;20140;-73
2023/09/27 05:03:25;;;;;;;0.68;0.68;;;11.10;99.90;;;;;;5054948;28;20037;-73
2023/09/27 05:05:50;;;;;;;0.65;0.65;;;11.10;99.90;;;;;;5065178;28;20121;-73
2023/09/27 05:08:16;;;;;;;0.75;0.75;;;11.10;99.90;;;;;;5060915;28;20137;-72
2023/09/27 05:10:41;;;;;;;0.50;0.50;;;11.10;99.90;;;;;;5064070;28;20044;-71
2023/09/27 05:13:07;;;;;;;0.90;0.90;;;11.10;99.90;;;;;;5065442;28;20048;-72
2023/09/27 05:15:33;;;;;;;1.17;0.95;;;11.10;99.90;;;;;;5046484;28;20390;-73
2023/09/27 05:17:59;;;;;;;0.40;0.40;;;11.10;99.90;;;;;;5061484;28;20041;-72
2023/09/27 05:20:24;;;;;;;0.75;0.75;;;11.10;99.90;;;;;;5060388;28;20054;-72
2023/09/27 05:22:51;;;;;;;0.40;0.40;;;11.10;99.90;;;;;;5060503;28;20036;-72
2023/09/27 05:25:17;;;;;;;0.40;0.40;;;11.10;99.90;;;;;;5060970;28;20459;-73
2023/09/27 05:27:43;;;;;;;0.40;0.40;;;11.10;99.90;;;;;;5066501;28;20055;-72
2023/09/27 05:30:12;;;;;;;0.80;0.80;;;11.10;99.90;;;;;;5062143;28;20044;-73
2023/09/27 05:32:38;;;;;;;0.47;0.47;;;11.10;99.90;;;;;;5058576;28;20488;-72
2023/09/27 05:35:05;;;;;;;0.50;0.50;;;11.10;99.90;;;;;;5063956;28;20048;-73
2023/09/27 05:37:31;;;;;;;0.55;0.55;;;11.10;99.90;;;;;;5060041;28;20040;-72
2023/09/27 05:39:57;;;;;;;0.40;0.40;;;11.20;99.90;;;;;;5052343;28;20044;-72
2023/09/27 05:42:23;;;;;;;0.63;0.63;;;11.20;99.90;;;;;;5059741;28;20262;-72
2023/09/27 05:44:49;;;;;;;0.82;0.82;;;11.30;99.90;;;;;;5062407;28;20106;-73
2023/09/27 05:47:15;;;;;;;0.70;0.57;;;11.30;99.90;;;;;;5061708;28;20113;-72
2023/09/27 05:49:42;;;;;;;0.70;0.70;;;11.40;99.90;;;;;;5046801;28;20510;-72
2023/09/27 05:52:12;;;;;;;2.40;0.60;;;11.50;99.90;;;;;;5060675;28;20523;-72
2023/09/27 05:54:41;;;;;;;0.40;0.40;;;11.60;99.90;;;;;;5063470;28;20054;-72
2023/09/27 05:57:06;;;;;;;0.50;0.50;;;11.60;99.90;;;;;;5066031;28;20548;-73
2023/09/27 05:59:33;;;;;;;3.13;1.45;;;11.70;99.90;;;;;;5060434;28;20139;-73
2023/09/27 06:01:59;;;;;;;0.93;0.90;;;11.80;99.90;;;;;;5060014;28;20368;-73
2023/09/27 06:04:25;;;;;;;1.20;0.98;;;11.90;99.90;;;;;;5061698;28;20051;-73
2023/09/27 06:06:51;;;;;;;0.43;0.43;;;12.00;99.90;;;;;;5067876;28;20513;-73
2023/09/27 06:09:17;;;;;;;2.15;1.02;;;12.00;99.90;;;;;;5063725;28;20036;-73
2023/09/27 06:11:45;;;;;;;0.50;0.50;;;12.10;99.90;;;;;;5045050;28;20653;-73
2023/09/27 06:14:11;;;;;;;0.50;0.50;;;12.20;99.90;;;;;;5055170;28;20048;-73
2023/09/27 06:16:40;;;;;;;0.40;0.40;;;12.30;99.90;;;;;;5058648;28;20131;-73
2023/09/27 06:19:06;;;;;;;0.50;0.50;;;12.30;99.90;;;;;;5057493;28;20390;-74
2023/09/27 06:21:32;;;;;;;0.50;0.50;;;12.40;99.90;;;;;;5044003;28;20041;-73
2023/09/27 06:23:59;;;;;;;0.45;0.45;;;12.50;99.90;;;;;;5070215;28;20040;-73
2023/09/27 06:26:25;;;;;;;0.70;0.70;;;12.50;99.90;;;;;;5069327;28;20029;-73
2023/09/27 06:28:50;;;;;;;0.85;0.85;;;12.50;99.90;;;;;;5060935;28;20465;-73
2023/09/27 06:31:16;;;;;;;0.38;0.38;;;12.60;99.90;;;;;;5060950;28;20036;-74
2023/09/27 06:33:45;;;;;;;0.70;0.70;;;12.60;99.90;;;;;;5057976;28;20043;-74
2023/09/27 06:36:11;;;;;;;1.02;1.02;;;12.60;99.90;;;;;;5060079;28;20047;-74
2023/09/27 06:38:38;;;;;;;0.65;0.65;;;12.70;99.90;;;;;;5069915;28;20043;-74
2023/09/27 06:41:04;;;;;;;0.82;0.82;;;12.70;99.90;;;;;;5062452;28;20091;-74
2023/09/27 06:43:31;;;;;;;0.98;0.98;;;12.70;99.90;;;;;;5060180;28;20103;-74
2023/09/27 06:45:57;;;;;;;0.88;0.88;;;12.70;99.90;;;;;;5036586;28;20032;-74
2023/09/27 06:48:24;;;;;;;1.50;1.40;;;12.80;99.90;;;;;;5055787;28;20506;-74
2023/09/27 06:50:50;;;;;;;0.70;0.70;;;12.80;99.90;;;;;;5052779;28;20041;-74
2023/09/27 06:53:16;;;;;;;0.47;0.47;;;12.80;99.90;;;;;;5040033;28;20037;-74
2023/09/27 06:55:44;;;;;;;0.77;0.77;;;12.90;99.90;;;;;;5061068;28;20071;-74
2023/09/27 06:58:11;;;;;;;0.77;0.77;;;12.90;99.90;;;;;;5053751;28;20051;-74
2023/09/27 07:00:41;;;;;;;1.45;1.20;;;13.00;99.90;;;;;;5060221;28;20059;-74
2023/09/27 07:03:06;;;;;;;0.45;0.45;;;13.10;99.90;;;;;;5063462;28;20083;-74
2023/09/27 07:05:33;;;;;;;0.63;0.63;;;13.10;99.90;;;;;;5059906;28;20075;-74
2023/09/27 07:08:00;;;;;;;0.50;0.50;;;13.20;99.90;;;;;;5054479;28;20432;-74
2023/09/27 07:10:25;;;;;;;0.35;0.35;;;13.20;99.90;;;;;;5062772;28;20044;-74
2023/09/27 07:12:52;;;;;;;0.38;0.38;;;13.30;99.90;;;;;;5059002;28;20029;-74
2023/09/27 07:15:18;;;;;;;0.38;0.38;;;13.40;99.90;;;;;;5061811;28;20131;-74
2023/09/27 07:17:44;;;;;;;0.57;0.57;;;13.50;99.90;;;;;;5038770;28;20154;-75
2023/09/27 07:20:24;;;;;;;0.70;0.70;;;13.60;99.90;;;;;;5061658;28;20090;-75
2023/09/27 07:22:51;;;;;;;0.75;0.75;;;13.70;99.90;;;;;;5061714;28;20047;-74
2023/09/27 07:25:19;;;;;;;1.90;0.70;;;13.80;99.90;;;;;;5062420;28;20047;-74
2023/09/27 07:27:47;;;;;;;0.30;0.30;;;13.90;99.90;;;;;;5069260;28;20252;-74
2023/09/27 07:30:18;;;;;;;0.82;0.82;;;14.00;99.90;;;;;;5058131;28;20508;-74
2023/09/27 07:32:50;;;;;;;0.50;0.50;;;14.10;99.90;;;;;;5054935;28;20103;-74
2023/09/27 07:35:17;;;;;;;0.40;0.40;;;14.20;99.90;;;;;;5062392;28;20094;-74
2023/09/27 07:37:44;;;;;;;0.52;0.52;;;14.30;99.90;;;;;;5063846;28;20132;-74
2023/09/27 07:40:12;;;;;;;0.40;0.40;;;14.30;99.90;;;;;;5062074;28;20055;-75
2023/09/27 07:42:40;;;;;;;0.40;0.40;;;14.40;99.90;;;;;;5058603;28;20040;-74
2023/09/27 07:45:09;;;;;;;0.38;0.38;;;14.50;99.90;;;;;;5065367;28;20052;-75
2023/09/27 07:47:34;;;;;;;0.65;0.65;;;14.60;99.90;;;;;;5066873;28;20041;-73
2023/09/27 07:50:00;;;;;;;0.73;0.70;;;14.70;99.90;;;;;;5067881;28;20051;-73
2023/09/27 07:52:26;;;;;;;0.55;0.55;;;14.80;99.90;;;;;;5066562;28;20036;-74
2023/09/27 07:54:51;;;;;;;0.82;0.57;;;14.80;99.90;;;;;;5063411;28;20044;-74
2023/09/27 07:57:19;;;;;;;0.60;0.60;;;14.90;99.90;;;;;;5051291;28;20055;-73
2023/09/27 07:59:45;;;;;;;0.43;0.43;;;14.90;99.90;;;;;;5063844;28;20063;-75
2023/09/27 08:02:11;;;;;;;0.30;0.30;;;15.00;99.90;;;;;;5072188;28;20107;-75
2023/09/27 08:04:39;;;;;;;0.40;0.40;;;15.10;99.90;;;;;;5056470;28;20097;-75
2023/09/27 08:07:05;;;;;;;0.40;0.40;;;15.20;99.90;;;;;;5046276;28;20036;-76
2023/09/27 08:09:31;;;;;;;0.45;0.45;;;15.20;99.90;;;;;;5057452;28;20628;-75
2023/09/27 08:11:57;;;;;;;1.17;1.08;;;15.30;99.90;;;;;;5068504;28;20501;-74
2023/09/27 08:14:23;;;;;;;0.30;0.30;;;15.30;99.90;;;;;;5060894;28;20097;-73
2023/09/27 08:16:50;;;;;;;0.40;0.40;;;15.40;99.90;;;;;;5060592;28;20052;-74
2023/09/27 08:19:16;;;;;;;0.45;0.45;;;15.40;99.90;;;;;;5063213;28;20127;-73
2023/09/27 08:21:42;;;;;;;1.65;0.80;;;15.50;99.90;;;;;;5041998;28;20178;-74
2023/09/27 08:24:07;;;;;;;0.50;0.50;;;15.50;99.90;;;;;;5067589;28;20409;-73
2023/09/27 08:26:34;;;;;;;0.30;0.30;;;15.50;99.90;;;;;;5057808;28;20074;-73
2023/09/27 08:29:01;;;;;;;1.05;1.05;;;15.60;99.90;;;;;;5068115;28;20040;-74
2023/09/27 08:31:26;;;;;;;0.75;0.75;;;15.70;99.90;;;;;;5065094;28;20352;-74
2023/09/27 08:33:52;;;;;;;0.80;0.80;;;15.90;99.90;;;;;;5061026;28;20123;-74
2023/09/27 08:36:18;;;;;;;1.15;1.13;;;16.00;99.90;;;;;;5057116;28;20044;-74
2023/09/27 08:38:44;;;;;;;1.38;1.38;;;16.10;99.90;;;;;;5039630;28;20041;-74
2023/09/27 08:41:12;;;;;;;0.82;0.82;;;16.20;99.90;;;;;;5066423;28;20509;-74
2023/09/27 08:43:38;;;;;;;3.58;2.85;;;16.40;99.90;;;;;;5063784;28;20066;-74
2023/09/27 08:46:04;;;;;;;1.83;1.73;;;16.50;99.90;;;;;;5060052;28;20052;-75
2023/09/27 08:48:30;;;;;;;1.70;1.52;;;16.70;99.90;;;;;;5045642;28;20032;-70
2023/09/27 08:51:03;;;;;;;0.82;0.82;;;16.80;99.90;;;;;;5056745;28;20052;-74
2023/09/27 08:53:28;;;;;;;4.53;1.65;;;16.90;99.90;;;;;;5070612;28;20046;-75
2023/09/27 08:55:55;;;;;;;0.77;0.77;;;17.00;99.90;;;;;;5069734;28;20118;-74
2023/09/27 08:58:24;;;;;;;2.80;2.40;;;17.20;99.90;;;;;;5057140;28;20133;-75
2023/09/27 09:00:51;;;;;;;0.80;0.80;;;17.30;99.90;;;;;;5054786;28;20109;-75
2023/09/27 09:03:18;;;;;;;1.23;1.10;;;17.50;99.90;;;;;;5061273;28;20402;-75
2023/09/27 09:05:45;;;;;;;0.52;0.52;;;17.70;99.90;;;;;;5066652;28;20044;-75
2023/09/27 09:08:11;;;;;;;0.50;0.43;;;17.90;99.90;;;;;;5066559;28;20040;-75
2023/09/27 09:10:37;;;;;;;0.75;0.75;;;18.20;99.90;;;;;;5067392;28;20306;-74
2023/09/27 09:13:04;;;;;;;0.60;0.60;;;18.30;99.90;;;;;;5058657;28;20524;-75
2023/09/27 09:15:35;;;;;;;0.90;0.80;;;18.50;99.90;;;;;;5064640;28;20046;-75
2023/09/27 09:18:08;;;;;;;1.00;0.82;;;18.70;99.90;;;;;;5067753;28;20036;-75
2023/09/27 09:20:48;;;;;;;0.57;0.57;;;18.90;99.90;;;;;;5037958;28;20036;-75
2023/09/27 09:23:31;;;;;;;2.05;1.00;;;19.00;99.90;;;;;;5069354;28;20052;-74
2023/09/27 09:25:58;;;;;;;1.20;1.15;;;19.30;99.90;;;;;;5057920;28;20502;-72
2023/09/27 09:28:27;;;;;;;0.73;0.73;;;19.40;99.90;;;;;;5064288;28;20086;-71
2023/09/27 09:30:54;;;;;;;0.40;0.40;;;19.50;99.90;;;;;;5064682;28;20050;-72
2023/09/27 09:33:20;;;;;;;0.90;0.90;;;19.60;99.90;;;;;;5038348;28;20036;-74
2023/09/27 09:35:46;;;;;;;0.75;0.75;;;19.60;99.90;;;;;;5058422;28;20523;-74
2023/09/27 09:38:21;;;;;;;1.00;0.65;;;19.70;99.90;;;;;;5066572;28;20047;-73
2023/09/27 09:40:56;;;;;;;0.60;0.60;;;19.70;99.90;;;;;;5041054;28;20116;-73
2023/09/27 09:43:33;;;;;;;0.50;0.50;;;19.70;99.90;;;;;;5058852;28;20047;-71
2023/09/27 09:46:00;;;;;;;0.47;0.47;;;19.80;99.90;;;;;;5057986;28;20650;-72
2023/09/27 09:48:27;;;;;;;0.40;0.40;;;19.90;99.90;;;;;;5062238;28;20040;-71
2023/09/27 09:51:01;;;;;;;0.63;0.63;;;19.90;99.90;;;;;;5059209;28;20025;-72
2023/09/27 09:53:28;;;;;;;0.60;0.60;;;19.90;99.90;;;;;;5051024;28;20032;-72
2023/09/27 09:55:57;;;;;;;0.60;0.60;;;20.00;99.90;;;;;;5040594;28;20567;-71
2023/09/27 09:58:32;;;;;;;0.40;0.40;;;20.00;99.90;;;;;;5058739;28;20040;-71
2023/09/27 10:01:01;;;;;;;0.43;0.43;;;20.10;99.90;;;;;;5055397;28;20107;-72
2023/09/27 10:03:32;;;;;;;0.80;0.80;;;20.10;99.90;;;;;;5058585;28;20558;-72
2023/09/27 10:06:01;;;;;;;0.55;0.55;;;20.10;99.90;;;;;;5080636;28;20406;-72
2023/09/27 10:08:33;;;;;;;0.65;0.65;;;20.10;99.90;;;;;;5067416;28;20520;-72
2023/09/27 10:11:06;;;;;;;1.20;1.13;;;20.20;99.90;;;;;;5060494;28;20036;-72
2023/09/27 10:13:38;;;;;;;0.65;0.47;;;20.20;99.90;;;;;;5068429;28;20044;-72
2023/09/27 10:16:05;;;;;;;0.70;0.70;;;20.30;99.90;;;;;;5059061;28;20090;-72
2023/09/27 10:18:35;;;;;;;0.87;0.87;;;20.40;99.90;;;;;;5046390;28;20031;-75
2023/09/27 10:21:01;;;;;;;2.25;1.25;;;20.60;99.90;;;;;;5063718;28;20455;-73
2023/09/27 10:23:26;;;;;;;2.00;1.85;;;20.70;99.90;;;;;;5058543;28;20036;-72
2023/09/27 10:25:52;;;;;;;1.92;1.77;;;20.80;99.90;;;;;;5054997;28;20036;-72
2023/09/27 10:28:18;;;;;;;1.90;1.67;;;20.80;99.90;;;;;;5053292;28;20044;-72
2023/09/27 10:30:48;;;;;;;0.80;0.80;;;20.90;99.90;;;;;;5055816;28;20522;-72
2023/09/27 10:33:16;;;;;;;0.80;0.80;;;20.90;99.90;;;;;;5065163;28;20050;-72
2023/09/27 10:36:08;;;;;;;1.08;1.08;;;20.90;99.90;;;;;;5054307;28;20044;-72
2023/09/27 10:38:43;;;;;;;0.88;0.88;;;21.00;99.90;;;;;;5015624;28;20055;-72
2023/09/27 10:41:29;;;;;;;3.00;2.60;;;21.00;99.90;;;;;;5060969;28;20544;-73
2023/09/27 10:43:55;;;;;;;1.83;1.73;;;21.10;99.90;;;;;;5055417;28;20044;-71
2023/09/27 10:46:21;;;;;;;1.00;1.00;;;21.20;99.90;;;;;;5059302;28;20067;-73
2023/09/27 10:49:00;;;;;;;0.93;0.93;;;21.40;99.90;;;;;;5058378;28;20063;-72
2023/09/27 10:51:26;;;;;;;2.85;1.75;;;21.50;99.90;;;;;;5064507;28;20485;-73
2023/09/27 10:53:55;;;;;;;0.82;0.82;;;21.50;99.90;;;;;;5054908;28;20094;-73
2023/09/27 10:56:21;;;;;;;3.30;2.50;;;21.50;99.90;;;;;;5064606;28;20044;-73
2023/09/27 10:58:50;;;;;;;2.55;2.33;;;21.50;99.90;;;;;;5060319;28;20040;-73
2023/09/27 11:01:23;;;;;;;1.70;1.60;;;21.60;99.90;;;;;;5057437;28;20198;-72
2023/09/27 11:04:00;;;;;;;0.93;0.93;;;21.70;99.90;;;;;;5052575;28;20520;-73
2023/09/27 11:06:31;;;;;;;2.50;1.55;;;21.80;99.90;;;;;;5063982;28;20139;-72
2023/09/27 11:09:07;;;;;;;0.98;0.98;;;22.00;99.90;;;;;;5056064;28;20126;-72
2023/09/27 11:11:36;;;;;;;1.10;1.00;;;22.20;99.90;;;;;;5053347;28;20642;-72
2023/09/27 11:14:01;;;;;;;0.88;0.88;;;22.40;99.90;;;;;;5042671;28;20036;-72
2023/09/27 11:16:27;;;;;;;1.50;1.27;;;22.50;99.90;;;;;;5061287;28;20520;-72
2023/09/27 11:18:56;;;;;;;2.35;1.42;;;22.70;99.90;;;;;;5056066;28;20513;-73
2023/09/27 11:21:26;;;;;;;0.77;0.77;;;22.70;99.90;;;;;;5063764;28;20048;-72
2023/09/27 11:23:55;;;;;;;1.75;1.60;;;22.80;99.90;;;;;;5060820;28;20083;-73
2023/09/27 11:26:22;;;;;;;1.60;1.52;;;22.80;99.90;;;;;;5047120;28;20516;-73
2023/09/27 11:29:01;;;;;;;3.30;1.83;;;22.90;99.90;;;;;;5062485;28;20497;-72
2023/09/27 11:31:32;;;;;;;2.47;2.28;;;22.90;99.90;;;;;;5047045;28;20447;-71
2023/09/27 11:34:19;;;;;;;1.38;1.27;;;22.90;99.90;;;;;;5055449;28;20405;-71
2023/09/27 11:36:50;;;;;;;0.95;0.95;;;22.80;99.90;;;;;;5056323;28;20125;-74
2023/09/27 11:39:18;;;;;;;1.35;1.35;;;22.90;99.90;;;;;;5039976;28;20047;-72
2023/09/27 11:41:45;;;;;;;0.85;0.85;;;23.00;99.90;;;;;;5065772;28;20382;-73
2023/09/27 11:44:23;;;;;;;0.50;0.50;;;23.00;99.90;;;;;;5057209;28;20089;-73
2023/09/27 11:46:49;;;;;;;0.30;0.30;;;23.10;99.90;;;;;;5064125;28;20355;-72
2023/09/27 11:49:16;;;;;;;1.13;1.10;;;23.10;99.90;;;;;;5057073;28;20123;-72
2023/09/27 11:51:42;;;;;;;1.17;1.17;;;23.20;99.90;;;;;;5061302;28;20042;-72
2023/09/27 11:54:09;;;;;;;1.20;1.10;;;23.20;99.90;;;;;;5056982;28;20041;-72
2023/09/27 11:56:36;;;;;;;1.25;1.25;;;23.20;99.90;;;;;;5066686;28;20093;-73
2023/09/27 11:59:03;;;;;;;0.65;0.65;;;23.20;99.90;;;;;;5067752;28;20108;-72
2023/09/27 12:01:29;;;;;;;1.35;1.30;;;23.20;99.90;;;;;;5051882;28;20050;-72
2023/09/27 12:03:54;;;;;;;0.60;0.60;;;23.30;99.90;;;;;;5037748;28;20049;-72
2023/09/27 12:06:21;;;;;;;0.50;0.50;;;23.30;99.90;;;;;;5045253;28;20037;-72
2023/09/27 12:08:47;;;;;;;0.93;0.93;;;23.20;99.90;;;;;;5049417;28;20044;-72
2023/09/27 12:11:13;;;;;;;0.77;0.77;;;23.20;99.90;;;;;;5043155;28;20383;-71
2023/09/27 12:13:40;;;;;;;2.83;1.58;;;23.10;99.90;;;;;;5036452;28;20048;-72
2023/09/27 12:16:06;;;;;;;1.02;1.02;;;23.00;99.90;;;;;;5050618;28;20044;-72
2023/09/27 12:18:32;;;;;;;0.95;0.95;;;23.00;99.90;;;;;;5051926;28;20029;-72
2023/09/27 12:20:59;;;;;;;0.50;0.50;;;23.00;99.90;;;;;;5042094;28;20048;-73
2023/09/27 12:23:24;;;;;;;0.70;0.70;;;22.90;99.90;;;;;;5045705;28;20047;-72
2023/09/27 12:25:50;;;;;;;0.60;0.60;;;22.90;99.90;;;;;;5029745;28;20044;-72
2023/09/27 12:28:16;;;;;;;1.48;1.38;;;22.80;99.90;;;;;;5029058;28;20048;-72
2023/09/27 12:30:43;;;;;;;1.48;1.38;;;22.80;99.90;;;;;;5030162;28;20044;-73
2023/09/27 12:33:09;;;;;;;0.30;0.30;;;22.80;99.90;;;;;;5029183;28;20041;-73
2023/09/27 12:35:35;;;;;;;1.55;1.50;;;22.80;99.90;;;;;;5038500;28;20124;-72
2023/09/27 12:38:06;;;;;;;0.50;0.50;;;22.80;99.90;;;;;;5030203;28;20073;-73
2023/09/27 12:40:33;;;;;;;1.55;1.15;;;22.90;99.90;;;;;;5042289;28;20041;-73
2023/09/27 12:42:59;;;;;;;1.30;1.20;;;22.90;99.90;;;;;;5037604;28;20040;-72
2023/09/27 12:45:25;;;;;;;1.00;0.95;;;22.90;99.90;;;;;;5032484;28;20030;-74
2023/09/27 12:47:51;;;;;;;0.70;0.70;;;22.90;99.90;;;;;;5035751;28;20391;-74